sensor_id;sensor_type;location;lat;lon;timestamp;pressure;altitude;pressure_sealevel;temperature;humidity
75418;BME280;63997;52.112;5.420;2022-12-18T00:02:08;103017.88;;;-4.17;92.45
75418;BME280;63997;52.112;5.420;2022-12-18T00:04:37;103009.91;;;-4.15;92.49
75418;BME280;63997;52.112;5.420;2022-12-18T00:07:04;103010.91;;;-4.16;92.46
75418;BME280;63997;52.112;5.420;2022-12-18T00:09:30;102997.91;;;-4.16;92.33
75418;BME280;63997;52.112;5.420;2022-12-18T00:12:06;102989.31;;;-4.17;92.24
75418;BME280;63997;52.112;5.420;2022-12-18T00:14:41;102985.09;;;-4.18;92.38
75418;BME280;63997;52.112;5.420;2022-12-18T00:17:10;102985.09;;;-4.18;92.31
75418;BME280;63997;52.112;5.420;2022-12-18T00:19:36;102990.28;;;-4.18;92.40
75418;BME280;63997;52.112;5.420;2022-12-18T00:22:03;102993.53;;;-4.16;92.26
75418;BME280;63997;52.112;5.420;2022-12-18T00:24:29;102988.84;;;-4.20;92.27
75418;BME280;63997;52.112;5.420;2022-12-18T00:26:56;103004.75;;;-4.23;92.16
75418;BME280;63997;52.112;5.420;2022-12-18T00:29:23;103000.88;;;-4.28;91.98
75418;BME280;63997;52.112;5.420;2022-12-18T00:31:49;103000.22;;;-4.30;92.16
75418;BME280;63997;52.112;5.420;2022-12-18T00:34:16;102994.22;;;-4.30;92.19
75418;BME280;63997;52.112;5.420;2022-12-18T00:36:42;102989.66;;;-4.28;92.11
75418;BME280;63997;52.112;5.420;2022-12-18T00:39:11;102991.63;;;-4.30;92.13
75418;BME280;63997;52.112;5.420;2022-12-18T00:41:38;102992.63;;;-4.31;92.08
75418;BME280;63997;52.112;5.420;2022-12-18T00:44:23;102996.81;;;-4.30;92.30
75418;BME280;63997;52.112;5.420;2022-12-18T00:46:49;102992.94;;;-4.34;92.08
75418;BME280;63997;52.112;5.420;2022-12-18T00:49:18;102984.66;;;-4.38;92.10
75418;BME280;63997;52.112;5.420;2022-12-18T00:51:45;102981.44;;;-4.40;92.35
75418;BME280;63997;52.112;5.420;2022-12-18T00:54:12;102989.38;;;-4.41;92.16
75418;BME280;63997;52.112;5.420;2022-12-18T00:56:39;102993.59;;;-4.40;91.99
75418;BME280;63997;52.112;5.420;2022-12-18T00:59:14;102991.81;;;-4.40;92.19
75418;BME280;63997;52.112;5.420;2022-12-18T01:01:41;102992.63;;;-4.39;92.14
75418;BME280;63997;52.112;5.420;2022-12-18T01:04:07;102992.16;;;-4.43;92.28
75418;BME280;63997;52.112;5.420;2022-12-18T01:06:34;102979.31;;;-4.44;92.30
75418;BME280;63997;52.112;5.420;2022-12-18T01:09:01;102970.91;;;-4.46;92.53
75418;BME280;63997;52.112;5.420;2022-12-18T01:11:28;102974.78;;;-4.50;92.09
75418;BME280;63997;52.112;5.420;2022-12-18T01:13:55;102976.41;;;-4.49;91.89
75418;BME280;63997;52.112;5.420;2022-12-18T01:16:22;102972.38;;;-4.52;92.00
75418;BME280;63997;52.112;5.420;2022-12-18T01:18:52;102979.84;;;-4.57;92.23
75418;BME280;63997;52.112;5.420;2022-12-18T01:21:19;102993.97;;;-4.60;92.11
75418;BME280;63997;52.112;5.420;2022-12-18T01:23:46;102989.59;;;-4.59;92.14
75418;BME280;63997;52.112;5.420;2022-12-18T01:26:16;102989.41;;;-4.58;92.26
75418;BME280;63997;52.112;5.420;2022-12-18T01:28:43;102994.59;;;-4.58;92.32
75418;BME280;63997;52.112;5.420;2022-12-18T01:33:41;102998.66;;;-4.63;91.97
75418;BME280;63997;52.112;5.420;2022-12-18T01:36:08;103005.00;;;-4.66;92.27
75418;BME280;63997;52.112;5.420;2022-12-18T01:38:40;103005.97;;;-4.67;92.11
75418;BME280;63997;52.112;5.420;2022-12-18T01:41:06;103001.59;;;-4.66;92.13
75418;BME280;63997;52.112;5.420;2022-12-18T01:43:54;103010.69;;;-4.70;91.98
75418;BME280;63997;52.112;5.420;2022-12-18T01:46:24;103009.38;;;-4.74;92.14
75418;BME280;63997;52.112;5.420;2022-12-18T01:48:54;103012.31;;;-4.78;92.04
75418;BME280;63997;52.112;5.420;2022-12-18T01:51:23;103010.22;;;-4.82;92.03
75418;BME280;63997;52.112;5.420;2022-12-18T01:53:50;103011.50;;;-4.86;92.02
75418;BME280;63997;52.112;5.420;2022-12-18T01:56:18;103005.19;;;-4.92;91.86
75418;BME280;63997;52.112;5.420;2022-12-18T01:58:58;103001.91;;;-4.94;91.80
75418;BME280;63997;52.112;5.420;2022-12-18T02:01:26;103000.78;;;-4.99;91.83
75418;BME280;63997;52.112;5.420;2022-12-18T02:03:53;103007.28;;;-5.03;91.85
75418;BME280;63997;52.112;5.420;2022-12-18T02:06:29;103008.28;;;-5.04;91.71
75418;BME280;63997;52.112;5.420;2022-12-18T02:09:03;103018.13;;;-5.08;91.49
75418;BME280;63997;52.112;5.420;2022-12-18T02:11:40;103022.03;;;-5.12;91.36
75418;BME280;63997;52.112;5.420;2022-12-18T02:16:52;103011.81;;;-5.14;91.41
75418;BME280;63997;52.112;5.420;2022-12-18T02:27:56;103012.28;;;-5.26;90.93
75418;BME280;63997;52.112;5.420;2022-12-18T02:30:27;103027.19;;;-5.28;90.86
75418;BME280;63997;52.112;5.420;2022-12-18T02:32:55;103020.72;;;-5.33;90.79
75418;BME280;63997;52.112;5.420;2022-12-18T02:35:25;103019.91;;;-5.33;90.70
75418;BME280;63997;52.112;5.420;2022-12-18T02:37:54;103012.59;;;-5.38;90.52
75418;BME280;63997;52.112;5.420;2022-12-18T02:40:22;103008.53;;;-5.40;90.54
75418;BME280;63997;52.112;5.420;2022-12-18T02:42:50;103008.53;;;-5.40;90.74
75418;BME280;63997;52.112;5.420;2022-12-18T02:45:16;103008.53;;;-5.40;90.57
75418;BME280;63997;52.112;5.420;2022-12-18T02:47:46;102999.94;;;-5.41;90.71
75418;BME280;63997;52.112;5.420;2022-12-18T02:50:22;102991.03;;;-5.38;90.64
75418;BME280;63997;52.112;5.420;2022-12-18T02:53:07;102993.13;;;-5.42;90.44
75418;BME280;63997;52.112;5.420;2022-12-18T02:58:30;102990.22;;;-5.47;90.26
75418;BME280;63997;52.112;5.420;2022-12-18T03:01:06;102998.16;;;-5.48;90.13
75418;BME280;63997;52.112;5.420;2022-12-18T03:03:55;102987.59;;;-5.55;89.83
75418;BME280;63997;52.112;5.420;2022-12-18T03:06:26;102986.13;;;-5.57;89.85
75418;BME280;63997;52.112;5.420;2022-12-18T03:09:06;102982.22;;;-5.62;89.50
75418;BME280;63997;52.112;5.420;2022-12-18T03:11:38;102965.38;;;-5.66;89.48
75418;BME280;63997;52.112;5.420;2022-12-18T03:14:29;102968.13;;;-5.67;89.56
75418;BME280;63997;52.112;5.420;2022-12-18T03:17:01;102973.47;;;-5.69;89.45
75418;BME280;63997;52.112;5.420;2022-12-18T03:19:32;102975.09;;;-5.68;89.25
75418;BME280;63997;52.112;5.420;2022-12-18T03:22:02;102972.50;;;-5.68;89.20
75418;BME280;63997;52.112;5.420;2022-12-18T03:24:31;102967.47;;;-5.69;89.07
75418;BME280;63997;52.112;5.420;2022-12-18T03:27:01;102967.66;;;-5.71;89.10
75418;BME280;63997;52.112;5.420;2022-12-18T03:29:33;102966.97;;;-5.73;89.23
75418;BME280;63997;52.112;5.420;2022-12-18T03:32:05;102960.84;;;-5.72;89.53
75418;BME280;63997;52.112;5.420;2022-12-18T03:34:35;102957.28;;;-5.71;89.58
75418;BME280;63997;52.112;5.420;2022-12-18T03:37:03;102956.94;;;-5.68;89.54
75418;BME280;63997;52.112;5.420;2022-12-18T03:39:30;102951.75;;;-5.68;89.70
75418;BME280;63997;52.112;5.420;2022-12-18T03:44:49;102946.56;;;-5.76;89.46
75418;BME280;63997;52.112;5.420;2022-12-18T03:47:27;102941.06;;;-5.81;88.96
75418;BME280;63997;52.112;5.420;2022-12-18T03:50:15;102937.16;;;-5.85;88.97
75418;BME280;63997;52.112;5.420;2022-12-18T03:52:49;102942.66;;;-5.88;88.68
75418;BME280;63997;52.112;5.420;2022-12-18T03:55:19;102937.63;;;-5.90;88.75
75418;BME280;63997;52.112;5.420;2022-12-18T03:57:48;102941.69;;;-5.95;88.58
75418;BME280;63997;52.112;5.420;2022-12-18T04:00:18;102933.25;;;-5.97;88.64
75418;BME280;63997;52.112;5.420;2022-12-18T04:02:48;102936.81;;;-5.98;88.57
75418;BME280;63997;52.112;5.420;2022-12-18T04:05:16;102934.41;;;-6.00;88.75
75418;BME280;63997;52.112;5.420;2022-12-18T04:07:46;102931.94;;;-6.01;88.51
75418;BME280;63997;52.112;5.420;2022-12-18T04:10:14;102926.28;;;-6.05;88.64
75418;BME280;63997;52.112;5.420;2022-12-18T04:12:42;102934.88;;;-6.04;88.67
75418;BME280;63997;52.112;5.420;2022-12-18T04:15:10;102929.84;;;-6.06;88.93
75418;BME280;63997;52.112;5.420;2022-12-18T04:17:38;102919.16;;;-6.03;88.75
75418;BME280;63997;52.112;5.420;2022-12-18T04:20:05;102914.63;;;-6.01;88.99
75418;BME280;63997;52.112;5.420;2022-12-18T04:22:32;102912.72;;;-5.99;89.57
75418;BME280;63997;52.112;5.420;2022-12-18T04:24:59;102916.91;;;-5.98;89.26
75418;BME280;63997;52.112;5.420;2022-12-18T04:27:26;102913.19;;;-5.95;89.27
75418;BME280;63997;52.112;5.420;2022-12-18T04:29:53;102906.25;;;-5.95;89.38
75418;BME280;63997;52.112;5.420;2022-12-18T04:32:21;102908.16;;;-5.97;89.37
75418;BME280;63997;52.112;5.420;2022-12-18T04:34:48;102912.53;;;-5.97;89.45
75418;BME280;63997;52.112;5.420;2022-12-18T04:37:14;102911.22;;;-6.01;89.53
75418;BME280;63997;52.112;5.420;2022-12-18T04:39:41;102899.59;;;-6.05;89.35
75418;BME280;63997;52.112;5.420;2022-12-18T04:42:07;102912.66;;;-6.07;89.38
75418;BME280;63997;52.112;5.420;2022-12-18T04:44:33;102918.97;;;-6.09;89.44
75418;BME280;63997;52.112;5.420;2022-12-18T04:47:00;102923.19;;;-6.08;89.36
75418;BME280;63997;52.112;5.420;2022-12-18T04:49:26;102929.34;;;-6.09;89.23
75418;BME280;63997;52.112;5.420;2022-12-18T04:51:53;102937.28;;;-6.11;89.28
75418;BME280;63997;52.112;5.420;2022-12-18T04:54:20;102937.56;;;-6.14;89.31
75418;BME280;63997;52.112;5.420;2022-12-18T04:56:46;102937.75;;;-6.16;89.31
75418;BME280;63997;52.112;5.420;2022-12-18T04:59:13;102939.53;;;-6.16;89.43
75418;BME280;63997;52.112;5.420;2022-12-18T05:01:39;102942.09;;;-6.16;89.36
75418;BME280;63997;52.112;5.420;2022-12-18T05:04:06;102948.25;;;-6.17;88.91
75418;BME280;63997;52.112;5.420;2022-12-18T05:06:32;102954.25;;;-6.17;89.15
75418;BME280;63997;52.112;5.420;2022-12-18T05:08:59;102960.22;;;-6.16;89.53
75418;BME280;63997;52.112;5.420;2022-12-18T05:11:25;102958.13;;;-6.13;89.58
75418;BME280;63997;52.112;5.420;2022-12-18T05:13:52;102957.47;;;-6.15;89.66
75418;BME280;63997;52.112;5.420;2022-12-18T05:16:20;102960.59;;;-6.11;89.64
75418;BME280;63997;52.112;5.420;2022-12-18T05:18:46;102967.03;;;-6.15;89.54
75418;BME280;63997;52.112;5.420;2022-12-18T05:21:13;102958.44;;;-6.16;89.42
75418;BME280;63997;52.112;5.420;2022-12-18T05:23:39;102965.91;;;-6.13;89.52
75418;BME280;63997;52.112;5.420;2022-12-18T05:26:07;102970.13;;;-6.11;89.62
75418;BME280;63997;52.112;5.420;2022-12-18T05:28:35;102975.44;;;-6.13;89.58
75418;BME280;63997;52.112;5.420;2022-12-18T05:31:03;102983.06;;;-6.11;89.67
75418;BME280;63997;52.112;5.420;2022-12-18T05:33:32;102985.66;;;-6.11;89.58
75418;BME280;63997;52.112;5.420;2022-12-18T05:36:04;102990.97;;;-6.13;89.41
75418;BME280;63997;52.112;5.420;2022-12-18T05:38:32;102976.25;;;-6.13;89.43
75418;BME280;63997;52.112;5.420;2022-12-18T05:40:59;102985.16;;;-6.15;89.46
75418;BME280;63997;52.112;5.420;2022-12-18T05:43:26;102973.00;;;-6.15;89.45
75418;BME280;63997;52.112;5.420;2022-12-18T05:45:54;102963.16;;;-6.11;89.33
75418;BME280;63997;52.112;5.420;2022-12-18T05:48:23;102954.44;;;-6.10;89.48
75418;BME280;63997;52.112;5.420;2022-12-18T05:50:50;102956.22;;;-6.10;89.37
75418;BME280;63997;52.112;5.420;2022-12-18T05:53:20;102956.34;;;-6.12;89.35
75418;BME280;63997;52.112;5.420;2022-12-18T05:55:47;102954.72;;;-6.13;89.31
75418;BME280;63997;52.112;5.420;2022-12-18T05:58:15;102950.34;;;-6.13;89.39
75418;BME280;63997;52.112;5.420;2022-12-18T06:00:44;102945.19;;;-6.13;89.23
75418;BME280;63997;52.112;5.420;2022-12-18T06:03:25;102940.97;;;-6.14;89.11
75418;BME280;63997;52.112;5.420;2022-12-18T06:06:03;102941.94;;;-6.15;89.20
75418;BME280;63997;52.112;5.420;2022-12-18T06:08:30;102938.72;;;-6.17;89.24
75418;BME280;63997;52.112;5.420;2022-12-18T06:10:57;102938.72;;;-6.17;89.10
75418;BME280;63997;52.112;5.420;2022-12-18T06:13:23;102940.16;;;-6.14;89.06
75418;BME280;63997;52.112;5.420;2022-12-18T06:15:49;102937.75;;;-6.16;89.06
75418;BME280;63997;52.112;5.420;2022-12-18T06:18:16;102930.94;;;-6.17;88.88
75418;BME280;63997;52.112;5.420;2022-12-18T06:20:42;102920.88;;;-6.20;88.66
75418;BME280;63997;52.112;5.420;2022-12-18T06:23:10;102920.06;;;-6.20;88.79
75418;BME280;63997;52.112;5.420;2022-12-18T06:25:38;102917.50;;;-6.20;88.50
75418;BME280;63997;52.112;5.420;2022-12-18T06:28:06;102926.06;;;-6.20;88.77
75418;BME280;63997;52.112;5.420;2022-12-18T06:30:33;102916.69;;;-6.21;88.70
75418;BME280;63997;52.112;5.420;2022-12-18T06:33:00;102921.03;;;-6.21;88.39
75418;BME280;63997;52.112;5.420;2022-12-18T06:35:26;102917.47;;;-6.28;88.19
75418;BME280;63997;52.112;5.420;2022-12-18T06:37:52;102916.97;;;-6.32;88.22
75418;BME280;63997;52.112;5.420;2022-12-18T06:40:19;102906.09;;;-6.35;88.35
75418;BME280;63997;52.112;5.420;2022-12-18T06:42:45;102906.91;;;-6.35;88.15
75418;BME280;63997;52.112;5.420;2022-12-18T06:45:11;102912.41;;;-6.38;88.46
75418;BME280;63997;52.112;5.420;2022-12-18T06:47:41;102904.81;;;-6.40;88.06
75418;BME280;63997;52.112;5.420;2022-12-18T06:50:07;102892.00;;;-6.41;88.01
75418;BME280;63997;52.112;5.420;2022-12-18T06:52:34;102897.34;;;-6.43;88.06
75418;BME280;63997;52.112;5.420;2022-12-18T06:55:00;102883.59;;;-6.43;87.86
75418;BME280;63997;52.112;5.420;2022-12-18T06:57:27;102893.94;;;-6.43;87.88
75418;BME280;63997;52.112;5.420;2022-12-18T06:59:53;102887.44;;;-6.47;88.04
75418;BME280;63997;52.112;5.420;2022-12-18T07:02:19;102885.31;;;-6.52;87.46
75418;BME280;63997;52.112;5.420;2022-12-18T07:04:46;102876.75;;;-6.52;87.05
75418;BME280;63997;52.112;5.420;2022-12-18T07:07:12;102875.44;;;-6.56;87.25
75418;BME280;63997;52.112;5.420;2022-12-18T07:09:39;102874.94;;;-6.60;87.16
75418;BME280;63997;52.112;5.420;2022-12-18T07:12:07;102875.09;;;-6.61;87.20
75418;BME280;63997;52.112;5.420;2022-12-18T07:14:34;102876.19;;;-6.64;87.24
75418;BME280;63997;52.112;5.420;2022-12-18T07:17:01;102866.81;;;-6.65;87.30
75418;BME280;63997;52.112;5.420;2022-12-18T07:19:28;102861.66;;;-6.65;87.36
75418;BME280;63997;52.112;5.420;2022-12-18T07:21:56;102864.06;;;-6.63;87.66
75418;BME280;63997;52.112;5.420;2022-12-18T07:24:22;102862.16;;;-6.61;87.62
75418;BME280;63997;52.112;5.420;2022-12-18T07:26:48;102868.94;;;-6.60;87.50
75418;BME280;63997;52.112;5.420;2022-12-18T07:29:15;102866.19;;;-6.59;87.76
75418;BME280;63997;52.112;5.420;2022-12-18T07:31:41;102860.06;;;-6.58;87.68
75418;BME280;63997;52.112;5.420;2022-12-18T07:34:12;102852.81;;;-6.54;88.00
75418;BME280;63997;52.112;5.420;2022-12-18T07:36:39;102848.28;;;-6.52;88.01
75418;BME280;63997;52.112;5.420;2022-12-18T07:39:06;102847.31;;;-6.51;87.90
75418;BME280;63997;52.112;5.420;2022-12-18T07:41:33;102852.81;;;-6.54;87.75
75418;BME280;63997;52.112;5.420;2022-12-18T07:44:00;102846.00;;;-6.55;87.83
75418;BME280;63997;52.112;5.420;2022-12-18T07:46:28;102840.84;;;-6.55;87.65
75418;BME280;63997;52.112;5.420;2022-12-18T07:48:54;102830.78;;;-6.58;87.52
75418;BME280;63997;52.112;5.420;2022-12-18T07:51:20;102830.50;;;-6.55;87.39
75418;BME280;63997;52.112;5.420;2022-12-18T07:53:47;102829.34;;;-6.53;87.32
75418;BME280;63997;52.112;5.420;2022-12-18T07:56:17;102824.97;;;-6.52;87.31
75418;BME280;63997;52.112;5.420;2022-12-18T07:58:54;102822.91;;;-6.49;87.03
75418;BME280;63997;52.112;5.420;2022-12-18T08:01:20;102812.91;;;-6.44;86.96
75418;BME280;63997;52.112;5.420;2022-12-18T08:03:47;102823.44;;;-6.37;87.25
75418;BME280;63997;52.112;5.420;2022-12-18T08:06:15;102808.88;;;-6.30;87.35
75418;BME280;63997;52.112;5.420;2022-12-18T08:08:41;102812.47;;;-6.23;87.41
75418;BME280;63997;52.112;5.420;2022-12-18T08:11:08;102802.28;;;-6.16;87.40
75418;BME280;63997;52.112;5.420;2022-12-18T08:13:34;102796.31;;;-6.08;87.61
75418;BME280;63997;52.112;5.420;2022-12-18T08:16:03;102794.88;;;-5.95;87.78
75418;BME280;63997;52.112;5.420;2022-12-18T08:18:32;102806.66;;;-5.84;87.64
75418;BME280;63997;52.112;5.420;2022-12-18T08:21:10;102810.56;;;-5.72;87.46
75418;BME280;63997;52.112;5.420;2022-12-18T08:23:37;102790.97;;;-5.66;87.41
75418;BME280;63997;52.112;5.420;2022-12-18T08:26:10;102806.97;;;-5.46;86.88
75418;BME280;63997;52.112;5.420;2022-12-18T08:28:37;102813.44;;;-5.34;86.70
75418;BME280;63997;52.112;5.420;2022-12-18T08:31:03;102826.72;;;-5.29;86.46
75418;BME280;63997;52.112;5.420;2022-12-18T08:33:30;102832.56;;;-5.27;85.73
75418;BME280;63997;52.112;5.420;2022-12-18T08:36:00;102836.44;;;-5.31;85.70
75418;BME280;63997;52.112;5.420;2022-12-18T08:38:27;102827.88;;;-5.32;85.54
75418;BME280;63997;52.112;5.420;2022-12-18T08:41:05;102832.88;;;-5.30;85.90
75418;BME280;63997;52.112;5.420;2022-12-18T08:43:31;102828.31;;;-5.28;85.80
75418;BME280;63997;52.112;5.420;2022-12-18T08:46:17;102807.44;;;-5.26;85.98
75418;BME280;63997;52.112;5.420;2022-12-18T08:48:45;102810.34;;;-5.21;85.87
75418;BME280;63997;52.112;5.420;2022-12-18T08:51:11;102819.06;;;-5.14;85.92
75418;BME280;63997;52.112;5.420;2022-12-18T08:53:38;102817.91;;;-5.03;85.96
75418;BME280;63997;52.112;5.420;2022-12-18T08:56:05;102816.59;;;-4.91;85.92
75418;BME280;63997;52.112;5.420;2022-12-18T08:58:32;102814.75;;;-4.74;85.78
75418;BME280;63997;52.112;5.420;2022-12-18T09:01:03;102809.56;;;-4.43;85.80
75418;BME280;63997;52.112;5.420;2022-12-18T09:03:30;102832.22;;;-4.29;85.42
75418;BME280;63997;52.112;5.420;2022-12-18T09:05:56;102838.34;;;-4.22;85.20
75418;BME280;63997;52.112;5.420;2022-12-18T09:08:23;102833.72;;;-4.35;84.39
75418;BME280;63997;52.112;5.420;2022-12-18T09:10:51;102820.44;;;-4.40;84.60
75418;BME280;63997;52.112;5.420;2022-12-18T09:13:17;102816.16;;;-4.33;84.70
75418;BME280;63997;52.112;5.420;2022-12-18T09:15:47;102822.63;;;-4.29;85.12
75418;BME280;63997;52.112;5.420;2022-12-18T09:18:16;102823.94;;;-4.24;85.15
75418;BME280;63997;52.112;5.420;2022-12-18T09:20:43;102812.22;;;-4.20;85.47
75418;BME280;63997;52.112;5.420;2022-12-18T09:23:09;102811.22;;;-4.19;85.46
75418;BME280;63997;52.112;5.420;2022-12-18T09:25:36;102815.09;;;-4.15;85.49
75418;BME280;63997;52.112;5.420;2022-12-18T09:28:09;102817.34;;;-4.12;85.76
75418;BME280;63997;52.112;5.420;2022-12-18T09:30:41;102817.03;;;-4.09;85.81
75418;BME280;63997;52.112;5.420;2022-12-18T09:33:09;102815.03;;;-4.07;86.04
75418;BME280;63997;52.112;5.420;2022-12-18T09:35:36;102808.69;;;-4.05;86.08
75418;BME280;63997;52.112;5.420;2022-12-18T09:38:07;102799.56;;;-4.01;86.25
75418;BME280;63997;52.112;5.420;2022-12-18T09:40:36;102789.94;;;-3.92;86.39
75418;BME280;63997;52.112;5.420;2022-12-18T09:43:06;102784.75;;;-3.92;86.43
75418;BME280;63997;52.112;5.420;2022-12-18T09:45:47;102779.97;;;-3.88;86.37
75418;BME280;63997;52.112;5.420;2022-12-18T09:48:21;102789.06;;;-3.84;86.46
75418;BME280;63997;52.112;5.420;2022-12-18T09:50:50;102772.75;;;-3.78;86.74
75418;BME280;63997;52.112;5.420;2022-12-18T09:53:24;102772.06;;;-3.72;86.84
75418;BME280;63997;52.112;5.420;2022-12-18T09:55:51;102754.94;;;-3.66;86.75
75418;BME280;63997;52.112;5.420;2022-12-18T09:58:29;102764.47;;;-3.59;86.97
75418;BME280;63997;52.112;5.420;2022-12-18T10:00:57;102770.91;;;-3.55;86.90
75418;BME280;63997;52.112;5.420;2022-12-18T10:03:24;102765.19;;;-3.50;86.90
75418;BME280;63997;52.112;5.420;2022-12-18T10:06:06;102767.25;;;-3.46;86.85
75418;BME280;63997;52.112;5.420;2022-12-18T10:08:46;102763.16;;;-3.40;86.91
75418;BME280;63997;52.112;5.420;2022-12-18T10:19:34;102745.84;;;-3.18;86.90
75418;BME280;63997;52.112;5.420;2022-12-18T10:22:17;102749.34;;;-3.11;86.80
75418;BME280;63997;52.112;5.420;2022-12-18T10:27:30;102765.03;;;-3.04;86.65
75418;BME280;63997;52.112;5.420;2022-12-18T10:29:58;102755.06;;;-3.01;86.72
75418;BME280;63997;52.112;5.420;2022-12-18T10:32:28;102760.91;;;-2.99;86.79
75418;BME280;63997;52.112;5.420;2022-12-18T10:34:57;102749.13;;;-2.95;86.79
75418;BME280;63997;52.112;5.420;2022-12-18T10:37:28;102727.13;;;-2.92;87.02
75418;BME280;63997;52.112;5.420;2022-12-18T10:40:11;102728.59;;;-2.89;86.97
75418;BME280;63997;52.112;5.420;2022-12-18T10:42:47;102738.47;;;-2.85;86.96
75418;BME280;63997;52.112;5.420;2022-12-18T10:45:28;102742.13;;;-2.79;87.01
75418;BME280;63997;52.112;5.420;2022-12-18T10:47:55;102726.13;;;-2.76;86.81
75418;BME280;63997;52.112;5.420;2022-12-18T10:50:36;102718.75;;;-2.73;86.58
75418;BME280;63997;52.112;5.420;2022-12-18T10:53:26;102721.97;;;-2.71;86.43
75418;BME280;63997;52.112;5.420;2022-12-18T10:55:55;102720.28;;;-2.63;86.30
75418;BME280;63997;52.112;5.420;2022-12-18T10:58:37;102716.28;;;-2.59;86.20
75418;BME280;63997;52.112;5.420;2022-12-18T11:01:13;102710.53;;;-2.55;86.11
75418;BME280;63997;52.112;5.420;2022-12-18T11:03:41;102704.97;;;-2.52;86.18
75418;BME280;63997;52.112;5.420;2022-12-18T11:06:10;102703.59;;;-2.48;85.91
75418;BME280;63997;52.112;5.420;2022-12-18T11:08:37;102692.81;;;-2.45;85.95
75418;BME280;63997;52.112;5.420;2022-12-18T11:11:19;102682.00;;;-2.42;85.84
75418;BME280;63997;52.112;5.420;2022-12-18T11:16:34;102679.09;;;-2.32;85.87
75418;BME280;63997;52.112;5.420;2022-12-18T11:19:35;102685.34;;;-2.26;85.56
75418;BME280;63997;52.112;5.420;2022-12-18T11:22:19;102674.56;;;-2.23;85.37
75418;BME280;63997;52.112;5.420;2022-12-18T11:25:00;102665.34;;;-2.19;85.53
75418;BME280;63997;52.112;5.420;2022-12-18T11:36:41;102664.09;;;-2.02;84.87
75418;BME280;63997;52.112;5.420;2022-12-18T11:39:22;102674.94;;;-1.98;84.64
75418;BME280;63997;52.112;5.420;2022-12-18T11:41:59;102664.75;;;-1.93;84.59
75418;BME280;63997;52.112;5.420;2022-12-18T11:44:50;102659.97;;;-1.90;84.33
75418;BME280;63997;52.112;5.420;2022-12-18T11:47:29;102648.34;;;-1.87;84.40
75418;BME280;63997;52.112;5.420;2022-12-18T11:50:01;102654.78;;;-1.83;84.25
75418;BME280;63997;52.112;5.420;2022-12-18T11:52:35;102650.63;;;-1.77;84.12
75418;BME280;63997;52.112;5.420;2022-12-18T12:00:17;102637.00;;;-1.73;83.19
75418;BME280;63997;52.112;5.420;2022-12-18T12:08:15;102620.38;;;-1.65;83.53
75418;BME280;63997;52.112;5.420;2022-12-18T12:10:59;102609.16;;;-1.66;83.47
75418;BME280;63997;52.112;5.420;2022-12-18T12:16:25;102602.72;;;-1.63;82.98
75418;BME280;63997;52.112;5.420;2022-12-18T12:19:19;102604.16;;;-1.61;82.87
75418;BME280;63997;52.112;5.420;2022-12-18T12:21:58;102594.97;;;-1.56;82.89
75418;BME280;63997;52.112;5.420;2022-12-18T12:24:52;102587.53;;;-1.53;82.85
75418;BME280;63997;52.112;5.420;2022-12-18T12:30:07;102591.38;;;-1.49;82.67
75418;BME280;63997;52.112;5.420;2022-12-18T12:32:43;102593.59;;;-1.46;82.37
75418;BME280;63997;52.112;5.420;2022-12-18T12:35:35;102584.78;;;-1.45;82.24
75418;BME280;63997;52.112;5.420;2022-12-18T12:38:12;102578.53;;;-1.44;82.20
75418;BME280;63997;52.112;5.420;2022-12-18T12:40:48;102580.75;;;-1.41;82.13
75418;BME280;63997;52.112;5.420;2022-12-18T12:43:35;102575.53;;;-1.41;81.87
75418;BME280;63997;52.112;5.420;2022-12-18T12:46:10;102569.34;;;-1.40;81.83
75418;BME280;63997;52.112;5.420;2022-12-18T12:48:47;102567.53;;;-1.39;82.01
75418;BME280;63997;52.112;5.420;2022-12-18T12:51:21;102551.66;;;-1.38;81.59
75418;BME280;63997;52.112;5.420;2022-12-18T12:53:49;102551.47;;;-1.36;81.49
75418;BME280;63997;52.112;5.420;2022-12-18T12:56:18;102549.47;;;-1.34;81.58
75418;BME280;63997;52.112;5.420;2022-12-18T13:07:01;102543.06;;;-1.25;81.74
75418;BME280;63997;52.112;5.420;2022-12-18T13:09:34;102542.25;;;-1.25;81.63
75418;BME280;63997;52.112;5.420;2022-12-18T13:12:12;102536.03;;;-1.24;81.35
75418;BME280;63997;52.112;5.420;2022-12-18T13:15:39;102540.88;;;-1.21;81.46
75418;BME280;63997;52.112;5.420;2022-12-18T13:20:42;102548.28;;;-1.18;81.01
75418;BME280;63997;52.112;5.420;2022-12-18T13:33:45;102513.97;;;-1.15;81.03
75418;BME280;63997;52.112;5.420;2022-12-18T13:36:33;102533.84;;;-1.14;81.03
75418;BME280;63997;52.112;5.420;2022-12-18T13:44:57;102510.97;;;-1.12;81.03
75418;BME280;63997;52.112;5.420;2022-12-18T13:47:34;102511.94;;;-1.13;81.10
75418;BME280;63997;52.112;5.420;2022-12-18T13:50:20;102504.13;;;-1.13;81.12
75418;BME280;63997;52.112;5.420;2022-12-18T13:52:59;102487.47;;;-1.12;80.91
75418;BME280;63997;52.112;5.420;2022-12-18T13:55:25;102483.25;;;-1.13;80.89
75418;BME280;63997;52.112;5.420;2022-12-18T13:58:03;102487.47;;;-1.12;80.78
75418;BME280;63997;52.112;5.420;2022-12-18T14:00:31;102485.47;;;-1.10;80.76
75418;BME280;63997;52.112;5.420;2022-12-18T14:02:59;102478.63;;;-1.11;80.44
75418;BME280;63997;52.112;5.420;2022-12-18T14:05:34;102476.84;;;-1.11;80.55
75418;BME280;63997;52.112;5.420;2022-12-18T14:08:07;102476.84;;;-1.11;80.54
75418;BME280;63997;52.112;5.420;2022-12-18T14:10:34;102469.59;;;-1.09;80.92
75418;BME280;63997;52.112;5.420;2022-12-18T14:13:31;102471.19;;;-1.08;80.75
75418;BME280;63997;52.112;5.420;2022-12-18T14:16:00;102467.78;;;-1.08;80.34
75418;BME280;63997;52.112;5.420;2022-12-18T14:18:33;102454.72;;;-1.08;80.56
75418;BME280;63997;52.112;5.420;2022-12-18T14:21:02;102451.94;;;-1.07;80.36
75418;BME280;63997;52.112;5.420;2022-12-18T14:26:03;102438.25;;;-1.09;80.60
75418;BME280;63997;52.112;5.420;2022-12-18T14:28:31;102431.22;;;-1.08;80.19
75418;BME280;63997;52.112;5.420;2022-12-18T14:30:58;102431.84;;;-1.06;80.26
75418;BME280;63997;52.112;5.420;2022-12-18T14:33:26;102431.84;;;-1.06;80.31
75418;BME280;63997;52.112;5.420;2022-12-18T14:35:59;102427.44;;;-1.05;80.24
75418;BME280;63997;52.112;5.420;2022-12-18T14:38:37;102425.84;;;-1.07;80.11